Time;durP1;ratioP1;P1;durP2;ratioP2;P2;SDS_P1;SDS_P2;PMS_P1;PMS_P2;Temp;Humidity;BMP_temperature;BMP_pressure;BME280_temperature;BME280_humidity;BME280_pressure;Samples;Min_cycle;Max_cycle;Signal;HPM_P1;HPM_P2
2022/11/05 00:09:29;;;;;;;8.70;5.22;;;;;;;7.33;100.00;101416.97;5093643;28;20081;-71
2022/11/05 00:17:34;;;;;;;8.52;5.00;;;;;;;7.33;100.00;101431.03;5093612;28;20031;-71
2022/11/05 00:20:00;;;;;;;9.65;5.38;;;;;;;7.27;100.00;101437.00;5093031;28;20032;-71
2022/11/05 00:25:16;;;;;;;13.23;5.05;;;;;;;7.13;100.00;101433.16;5093497;28;20092;-71
2022/11/05 00:27:46;;;;;;;10.43;4.78;;;;;;;7.05;100.00;101438.44;5093105;28;20027;-71
2022/11/05 00:30:16;;;;;;;10.63;5.35;;;;;;;7.00;100.00;101438.91;5101648;28;21028;-72
2022/11/05 00:32:43;;;;;;;5.78;3.92;;;;;;;6.97;100.00;101447.16;5112530;28;20047;-71
2022/11/05 00:35:08;;;;;;;10.93;5.50;;;;;;;6.91;100.00;101437.19;5112415;28;20023;-71
2022/11/05 00:37:34;;;;;;;11.35;4.90;;;;;;;6.86;100.00;101455.38;5112360;28;20513;-71
2022/11/05 00:39:59;;;;;;;10.20;4.65;;;;;;;6.81;100.00;101455.00;5111851;28;20133;-71
2022/11/05 00:45:09;;;;;;;11.93;5.93;;;;;;;6.71;100.00;101457.78;5112470;28;20539;-71
2022/11/05 00:50:21;;;;;;;12.00;5.72;;;;;;;6.64;100.00;101456.75;5112200;28;20034;-71
2022/11/05 00:52:55;;;;;;;10.70;5.30;;;;;;;6.58;100.00;101457.38;5112330;28;20054;-71
2022/11/05 00:55:25;;;;;;;9.23;5.45;;;;;;;6.44;100.00;101444.69;5112065;28;20035;-72
2022/11/05 00:57:51;;;;;;;11.55;5.97;;;;;;;6.48;100.00;101459.28;5111852;28;20024;-71
2022/11/05 01:00:16;;;;;;;10.40;4.95;;;;;;;6.42;100.00;101462.53;5111636;28;20031;-71
2022/11/05 01:02:42;;;;;;;9.30;4.30;;;;;;;6.40;100.00;101467.19;5111885;28;20035;-71
2022/11/05 01:05:07;;;;;;;8.50;5.32;;;;;;;6.34;100.00;101461.53;5111947;28;20020;-71
2022/11/05 01:07:33;;;;;;;9.80;5.50;;;;;;;6.31;100.00;101464.47;5111921;28;20503;-72
2022/11/05 01:09:58;;;;;;;10.30;4.90;;;;;;;6.30;100.00;101467.25;5111805;28;20440;-71
2022/11/05 01:12:24;;;;;;;9.18;5.03;;;;;;;6.24;100.00;101470.53;5111822;28;20031;-71
2022/11/05 01:14:49;;;;;;;13.20;5.70;;;;;;;6.15;100.00;101459.84;5111987;28;20069;-71
2022/11/05 01:17:14;;;;;;;11.05;6.25;;;;;;;6.21;100.00;101476.97;5112614;28;20027;-71
2022/11/05 01:19:40;;;;;;;8.43;5.60;;;;;;;6.18;100.00;101487.84;5091967;28;20026;-70
2022/11/05 01:22:05;;;;;;;12.27;5.57;;;;;;;6.17;100.00;101488.84;5091979;28;20441;-70
2022/11/05 01:24:31;;;;;;;11.43;5.72;;;;;;;6.17;100.00;101494.13;5092097;28;20364;-71
2022/11/05 01:26:56;;;;;;;9.93;5.40;;;;;;;6.13;100.00;101490.97;5091555;28;20024;-70
2022/11/05 01:29:21;;;;;;;17.50;5.45;;;;;;;6.11;100.00;101495.59;5091846;28;20026;-71
2022/11/05 01:31:47;;;;;;;11.48;5.55;;;;;;;6.11;100.00;101498.22;5091826;28;20083;-71
2022/11/05 01:34:12;;;;;;;11.13;5.53;;;;;;;6.09;100.00;101507.31;5091811;28;20055;-71
2022/11/05 01:36:37;;;;;;;10.18;5.25;;;;;;;6.10;100.00;101507.16;5091767;28;20556;-70
2022/11/05 01:39:03;;;;;;;13.90;7.03;;;;;;;6.07;100.00;101511.91;5091872;28;20039;-71
2022/11/05 01:41:28;;;;;;;11.18;5.55;;;;;;;6.04;100.00;101512.22;5091636;28;20074;-71
2022/11/05 01:43:56;;;;;;;9.45;5.03;;;;;;;6.05;100.00;101512.09;5091600;28;20036;-71
2022/11/05 01:46:35;;;;;;;14.00;5.93;;;;;;;6.00;100.00;101510.84;5091525;28;20047;-71
2022/11/05 01:49:30;;;;;;;15.25;6.30;;;;;;;6.04;100.00;101522.81;5091583;28;20496;-71
2022/11/05 01:51:59;;;;;;;16.13;6.82;;;;;;;5.99;100.00;101515.31;5082833;28;20047;-70
2022/11/05 01:54:30;;;;;;;9.07;5.32;;;;;;;5.96;100.00;101506.84;5091537;28;20107;-70
2022/11/05 01:57:02;;;;;;;8.57;4.63;;;;;;;6.00;100.00;101516.13;5091288;28;20031;-71
2022/11/05 01:59:33;;;;;;;8.32;5.00;;;;;;;6.01;100.00;101507.22;5109716;28;20035;-70
2022/11/05 02:02:00;;;;;;;8.25;4.53;;;;;;;5.99;100.00;101507.38;5110777;28;20023;-71
2022/11/05 02:04:30;;;;;;;8.35;4.75;;;;;;;5.97;100.00;101503.22;5110730;28;20023;-71
2022/11/05 02:06:56;;;;;;;11.00;6.10;;;;;;;5.93;100.00;101506.16;5092364;28;20031;-71
2022/11/05 02:09:30;;;;;;;10.65;6.57;;;;;;;5.91;100.00;101502.78;5110649;28;20031;-71
2022/11/05 02:11:57;;;;;;;11.18;5.53;;;;;;;5.93;100.00;101503.50;5109998;28;20466;-71
2022/11/05 02:14:22;;;;;;;10.85;5.13;;;;;;;5.88;100.00;101499.63;5110457;28;20098;-71
2022/11/05 02:16:56;;;;;;;9.00;5.03;;;;;;;5.86;100.00;101494.47;5110617;28;20082;-70
2022/11/05 02:19:51;;;;;;;8.05;5.45;;;;;;;5.88;100.00;101502.28;5110275;28;20030;-70
2022/11/05 02:22:47;;;;;;;12.73;5.32;;;;;;;5.85;100.00;101497.28;5067903;28;20052;-70
2022/11/05 02:25:24;;;;;;;10.27;5.03;;;;;;;5.82;100.00;101495.75;5090681;28;20103;-70
2022/11/05 02:28:21;;;;;;;8.65;5.07;;;;;;;5.79;100.00;101500.50;5090898;28;20032;-70
2022/11/05 02:31:00;;;;;;;8.27;4.47;;;;;;;5.76;100.00;101499.00;5090509;28;20031;-70
2022/11/05 02:33:42;;;;;;;9.60;5.20;;;;;;;5.75;100.00;101494.69;5090749;28;20043;-71
2022/11/05 02:36:22;;;;;;;7.45;4.28;;;;;;;5.74;100.00;101497.47;5090705;28;20028;-71
2022/11/05 02:38:57;;;;;;;7.28;4.35;;;;;;;5.72;100.00;101495.00;5090061;28;20035;-71
2022/11/05 02:41:40;;;;;;;10.48;4.55;;;;;;;5.70;100.00;101496.94;5090477;28;20056;-71
2022/11/05 02:44:21;;;;;;;8.27;4.32;;;;;;;5.67;100.00;101494.59;5072128;28;20039;-71
2022/11/05 02:46:49;;;;;;;10.10;4.45;;;;;;;5.63;100.00;101494.09;5090288;28;20027;-70
2022/11/05 02:49:45;;;;;;;9.77;4.53;;;;;;;5.62;100.00;101486.28;5090362;28;20110;-70
2022/11/05 02:52:27;;;;;;;6.97;4.22;;;;;;;5.54;100.00;101487.00;5090550;28;20035;-70
2022/11/05 02:55:12;;;;;;;9.27;6.18;;;;;;;5.54;100.00;101491.47;5090387;28;20028;-70
2022/11/05 02:57:43;;;;;;;11.95;4.13;;;;;;;5.51;100.00;101486.50;5090307;28;20055;-66
2022/11/05 03:00:34;;;;;;;10.13;4.53;;;;;;;5.51;100.00;101497.06;5090232;28;20038;-65
2022/11/05 03:02:59;;;;;;;10.18;4.05;;;;;;;5.47;100.00;101491.22;5089799;28;20107;-66
2022/11/05 03:05:37;;;;;;;11.07;6.28;;;;;;;5.42;100.00;101489.03;5090115;28;20443;-65
2022/11/05 03:08:15;;;;;;;9.10;4.60;;;;;;;5.42;100.00;101485.53;5090045;28;20447;-65
2022/11/05 03:10:50;;;;;;;11.07;5.47;;;;;;;5.39;100.00;101484.03;5109498;28;20060;-65
2022/11/05 03:13:38;;;;;;;7.40;4.65;;;;;;;5.36;100.00;101486.97;5089972;28;20024;-65
2022/11/05 03:16:28;;;;;;;11.75;5.38;;;;;;;5.29;100.00;101477.94;5089336;28;20043;-65
2022/11/05 03:19:09;;;;;;;9.20;4.65;;;;;;;5.32;100.00;101485.59;5089918;28;20032;-65
2022/11/05 03:21:49;;;;;;;9.38;4.97;;;;;;;5.31;100.00;101494.50;5089751;28;20027;-65
2022/11/05 03:24:20;;;;;;;11.52;5.50;;;;;;;5.25;100.00;101490.63;5093395;28;20023;-66
2022/11/05 03:26:55;;;;;;;8.52;5.50;;;;;;;5.27;100.00;101496.63;5107615;28;20023;-65
2022/11/05 03:29:29;;;;;;;10.50;5.13;;;;;;;5.24;100.00;101491.63;5089988;28;20983;-65
2022/11/05 03:31:58;;;;;;;12.55;6.28;;;;;;;5.27;100.00;101499.25;5089509;28;20019;-66
2022/11/05 03:34:37;;;;;;;11.55;5.28;;;;;;;5.23;100.00;101489.13;5089732;28;20102;-66
2022/11/05 03:37:04;;;;;;;10.82;6.03;;;;;;;5.23;100.00;101508.44;5089768;28;20720;-65
2022/11/05 03:39:34;;;;;;;11.75;5.88;;;;;;;5.20;100.00;101506.09;5088867;28;20032;-65
2022/11/05 03:42:04;;;;;;;10.80;5.72;;;;;;;5.16;100.00;101504.75;5089497;28;20105;-65
2022/11/05 03:44:33;;;;;;;14.02;6.15;;;;;;;5.13;100.00;101512.13;5089775;28;20078;-65
2022/11/05 03:47:04;;;;;;;11.43;6.82;;;;;;;5.09;100.00;101506.28;5089772;28;20066;-66
2022/11/05 03:49:37;;;;;;;14.82;7.05;;;;;;;5.09;100.00;101505.47;5089676;28;20016;-66
2022/11/05 03:52:06;;;;;;;11.02;6.05;;;;;;;5.06;100.00;101509.22;5089517;28;20501;-66
2022/11/05 03:54:33;;;;;;;11.88;6.05;;;;;;;5.01;100.00;101507.00;5089666;28;20028;-66
2022/11/05 03:57:20;;;;;;;11.23;6.10;;;;;;;5.03;100.00;101507.72;5089660;28;20063;-65
2022/11/05 03:59:48;;;;;;;14.25;6.95;;;;;;;5.01;100.00;101504.38;5088983;28;20032;-66
2022/11/05 04:02:15;;;;;;;14.00;6.82;;;;;;;4.94;100.00;101494.50;5106391;28;20031;-65
2022/11/05 04:04:41;;;;;;;15.25;7.45;;;;;;;4.94;100.00;101507.72;5089362;28;20032;-66
2022/11/05 04:15:21;;;;;;;16.30;6.60;;;;;;;4.89;100.00;101513.44;5109281;28;20454;-66
2022/11/05 04:17:46;;;;;;;13.02;6.85;;;;;;;4.91;100.00;101518.59;5108800;28;20114;-65
2022/11/05 04:25:58;;;;;;;11.95;6.75;;;;;;;4.84;100.00;101518.31;5089402;28;20552;-66
2022/11/05 04:30:17;;;;;;;12.38;6.85;;;;;;;4.85;100.00;101522.66;5071057;28;20111;-65
2022/11/05 04:31:08;;;;;;;15.93;7.53;;;;;;;4.87;100.00;101533.06;5089043;28;20055;-65
2022/11/05 04:33:33;;;;;;;13.25;7.38;;;;;;;4.83;100.00;101527.22;5089739;28;20032;-66
2022/11/05 04:35:59;;;;;;;15.38;7.38;;;;;;;4.82;100.00;101528.19;5074680;28;20043;-65
2022/11/05 04:38:24;;;;;;;27.85;9.98;;;;;;;4.75;100.00;101517.38;5092904;28;20035;-66
2022/11/05 04:40:49;;;;;;;15.25;9.18;;;;;;;4.77;100.00;101535.75;5092331;28;20453;-66
2022/11/05 04:43:17;;;;;;;16.15;8.57;;;;;;;4.76;100.00;101534.06;5091891;28;20134;-65
2022/11/05 04:45:43;;;;;;;18.27;8.20;;;;;;;4.73;100.00;101527.25;5092632;28;20051;-65
2022/11/05 04:48:09;;;;;;;15.35;8.02;;;;;;;4.74;100.00;101542.16;5092746;28;20027;-65
2022/11/05 04:50:34;;;;;;;16.45;8.52;;;;;;;4.72;100.00;101543.25;5092787;28;20028;-65
2022/11/05 04:53:00;;;;;;;14.90;7.30;;;;;;;4.72;100.00;101537.97;5092738;28;20032;-66
2022/11/05 04:55:26;;;;;;;13.10;8.57;;;;;;;4.69;100.00;101544.38;5092597;28;20039;-65
2022/11/05 04:57:52;;;;;;;17.15;8.52;;;;;;;4.61;100.00;101539.78;5092616;28;20024;-66
2022/11/05 05:00:20;;;;;;;15.35;9.68;;;;;;;4.66;100.00;101544.63;5092044;28;20485;-65
2022/11/05 05:02:46;;;;;;;17.58;8.75;;;;;;;4.66;100.00;101544.63;5112022;28;20028;-65
2022/11/05 05:05:12;;;;;;;14.77;8.70;;;;;;;4.64;100.00;101541.31;5111886;28;20052;-66
2022/11/05 05:07:38;;;;;;;16.65;8.13;;;;;;;4.58;100.00;101542.72;5111882;28;20028;-65
2022/11/05 05:10:05;;;;;;;14.80;8.63;;;;;;;4.62;100.00;101543.25;5111883;28;20157;-65
2022/11/05 05:12:32;;;;;;;14.98;8.23;;;;;;;4.63;100.00;101552.00;5111733;28;20142;-65
2022/11/05 05:14:57;;;;;;;16.02;8.70;;;;;;;4.64;100.00;101553.66;5111136;28;20041;-65
2022/11/05 05:17:23;;;;;;;15.82;8.43;;;;;;;4.61;100.00;101555.63;5111412;28;20382;-65
2022/11/05 05:22:32;;;;;;;18.55;10.65;;;;;;;4.64;100.00;101572.16;5111726;28;20039;-65
2022/11/05 05:24:58;;;;;;;16.42;8.90;;;;;;;4.62;100.00;101572.31;5111596;28;20487;-65
2022/11/05 05:27:28;;;;;;;15.40;9.65;;;;;;;4.60;100.00;101574.25;5111485;28;20378;-65
2022/11/05 05:29:53;;;;;;;15.27;8.40;;;;;;;4.56;100.00;101563.16;5111391;28;20019;-65
2022/11/05 05:32:19;;;;;;;16.50;9.68;;;;;;;4.56;100.00;101560.50;5111413;28;20038;-65
2022/11/05 05:34:44;;;;;;;18.08;9.60;;;;;;;4.53;100.00;101559.94;5110999;28;20031;-65
2022/11/05 05:37:09;;;;;;;16.15;8.60;;;;;;;4.52;100.00;101567.03;5111356;28;20051;-65
2022/11/05 05:39:35;;;;;;;21.73;11.57;;;;;;;4.41;100.00;101556.63;5110953;28;20067;-65
2022/11/05 05:42:00;;;;;;;18.15;10.50;;;;;;;4.47;100.00;101563.97;5111071;28;20100;-65
2022/11/05 05:44:25;;;;;;;16.80;9.57;;;;;;;4.45;100.00;101562.44;5110221;28;20028;-66
2022/11/05 05:46:53;;;;;;;16.48;9.50;;;;;;;4.47;100.00;101563.16;5107472;28;20115;-65
2022/11/05 05:49:18;;;;;;;20.13;10.88;;;;;;;4.37;100.00;101552.56;5091460;28;20111;-65
2022/11/05 05:51:43;;;;;;;17.52;9.80;;;;;;;4.44;100.00;101579.28;5110957;28;20118;-65
2022/11/05 05:54:10;;;;;;;17.17;10.20;;;;;;;4.41;100.00;101567.19;5111001;28;20055;-70
2022/11/05 05:56:35;;;;;;;19.98;10.25;;;;;;;4.43;100.00;101570.53;5110898;28;20028;-71
2022/11/05 05:59:01;;;;;;;18.10;10.38;;;;;;;4.42;100.00;101568.84;5110917;28;20031;-70
2022/11/05 06:01:26;;;;;;;17.15;10.05;;;;;;;4.43;100.00;101577.59;5110947;28;20034;-71
2022/11/05 06:03:51;;;;;;;18.65;9.43;;;;;;;4.42;100.00;101573.28;5092701;28;20028;-71
2022/11/05 06:06:20;;;;;;;18.55;10.73;;;;;;;4.41;100.00;101572.47;5091935;28;20043;-70
2022/11/05 06:08:46;;;;;;;17.52;9.82;;;;;;;4.39;100.00;101572.59;5091239;28;20058;-71
2022/11/05 06:11:12;;;;;;;22.63;11.82;;;;;;;4.38;100.00;101565.66;5091150;28;20032;-71
2022/11/05 06:13:37;;;;;;;19.02;10.43;;;;;;;4.42;100.00;101566.19;5098134;28;20050;-71
2022/11/05 06:16:05;;;;;;;19.63;10.63;;;;;;;4.44;100.00;101579.28;5110854;28;20047;-71
2022/11/05 06:18:32;;;;;;;18.65;10.18;;;;;;;4.43;100.00;101573.16;5090013;28;20119;-71
2022/11/05 06:21:05;;;;;;;16.50;10.43;;;;;;;4.45;100.00;101581.75;5090732;28;20054;-70
2022/11/05 06:23:31;;;;;;;20.48;10.23;;;;;;;4.43;100.00;101585.50;5090463;28;20043;-71
2022/11/05 06:26:01;;;;;;;16.02;9.60;;;;;;;4.43;100.00;101581.09;5110174;28;20102;-70
2022/11/05 06:28:28;;;;;;;32.40;11.25;;;;;;;4.39;100.00;101585.78;5090656;28;20441;-71
2022/11/05 06:30:54;;;;;;;14.82;8.60;;;;;;;4.38;100.00;101593.88;5090953;28;20038;-70
2022/11/05 06:33:19;;;;;;;16.25;9.10;;;;;;;4.37;100.00;101586.91;5090739;28;20024;-70
2022/11/05 06:35:45;;;;;;;14.25;8.32;;;;;;;4.34;100.00;101590.66;5090372;28;20093;-71
2022/11/05 06:38:10;;;;;;;18.25;10.05;;;;;;;4.34;100.00;101584.53;5090420;28;20036;-71
2022/11/05 06:40:35;;;;;;;19.65;9.90;;;;;;;4.34;100.00;101598.56;5090434;28;20043;-71
2022/11/05 06:43:01;;;;;;;17.90;10.23;;;;;;;4.33;100.00;101594.28;5090219;28;20079;-70
2022/11/05 06:45:26;;;;;;;16.65;8.73;;;;;;;4.32;100.00;101591.75;5090186;28;20065;-71
2022/11/05 06:47:55;;;;;;;18.00;10.50;;;;;;;4.32;100.00;101597.91;5090262;28;20039;-71
2022/11/05 06:50:22;;;;;;;22.08;9.90;;;;;;;4.36;100.00;101598.44;5090377;28;20378;-71
2022/11/05 06:52:58;;;;;;;18.92;9.05;;;;;;;4.34;100.00;101600.38;5090507;28;20395;-71
2022/11/05 06:55:25;;;;;;;15.73;8.38;;;;;;;4.36;100.00;101604.56;5090323;28;20031;-71
2022/11/05 06:57:50;;;;;;;19.63;10.55;;;;;;;4.37;100.00;101606.22;5089835;28;20111;-71
2022/11/05 07:00:17;;;;;;;20.17;10.02;;;;;;;4.37;100.00;101605.38;5090161;28;20447;-70
2022/11/05 07:02:42;;;;;;;19.70;10.05;;;;;;;4.29;100.00;101589.41;5071974;28;20390;-71
2022/11/05 07:05:10;;;;;;;20.73;9.68;;;;;;;4.38;100.00;101615.00;5090004;28;20032;-72
2022/11/05 07:07:36;;;;;;;17.88;8.80;;;;;;;4.41;100.00;101613.88;5090077;28;20028;-70
2022/11/05 07:10:03;;;;;;;18.33;10.23;;;;;;;4.44;100.00;101618.88;5089893;28;20539;-70
2022/11/05 07:12:29;;;;;;;15.32;8.95;;;;;;;4.49;100.00;101611.38;5089408;28;20042;-71
2022/11/05 07:14:54;;;;;;;20.10;12.40;;;;;;;4.47;100.00;101614.16;5090009;28;20028;-72
2022/11/05 07:17:20;;;;;;;15.65;8.35;;;;;;;4.52;100.00;101613.75;5071723;28;20036;-71
2022/11/05 07:19:45;;;;;;;18.10;8.77;;;;;;;4.53;100.00;101618.06;5089581;28;20135;-71
2022/11/05 07:22:11;;;;;;;19.65;9.73;;;;;;;4.56;100.00;101620.44;5071146;28;20136;-71
2022/11/05 07:24:36;;;;;;;18.58;8.95;;;;;;;4.55;100.00;101611.66;5089755;28;20032;-71
2022/11/05 07:27:01;;;;;;;18.05;9.95;;;;;;;4.59;100.00;101628.09;5071720;28;20394;-71
2022/11/05 07:29:27;;;;;;;18.15;9.43;;;;;;;4.61;100.00;101620.81;5089900;28;20387;-71
2022/11/05 07:31:52;;;;;;;16.67;8.98;;;;;;;4.66;100.00;101631.00;5071526;28;20032;-71
2022/11/05 07:34:17;;;;;;;17.30;8.82;;;;;;;4.74;100.00;101624.06;5089489;28;20034;-73
2022/11/05 07:36:43;;;;;;;15.93;9.20;;;;;;;4.81;100.00;101633.06;5081737;28;20051;-73
2022/11/05 07:39:09;;;;;;;18.70;9.65;;;;;;;4.92;100.00;101631.25;5092275;28;20089;-72
2022/11/05 07:41:34;;;;;;;23.95;9.05;;;;;;;5.02;100.00;101634.72;5066104;28;20056;-72
2022/11/05 07:43:59;;;;;;;17.02;8.70;;;;;;;5.16;100.00;101636.09;5092963;28;20822;-68
2022/11/05 07:46:25;;;;;;;20.63;8.77;;;;;;;5.27;100.00;101639.44;5095431;28;20913;-70
2022/11/05 07:48:50;;;;;;;18.40;10.40;;;;;;;5.36;100.00;101642.19;5096462;28;20035;-69
2022/11/05 07:51:15;;;;;;;16.08;8.75;;;;;;;5.43;100.00;101645.94;5096134;28;20462;-69
2022/11/05 07:53:41;;;;;;;17.77;8.95;;;;;;;5.49;100.00;101646.19;5096383;28;20028;-69
2022/11/05 07:56:07;;;;;;;14.45;7.75;;;;;;;5.56;100.00;101646.47;5095809;28;20032;-69
2022/11/05 07:58:35;;;;;;;18.50;8.43;;;;;;;5.59;100.00;101640.03;5096348;28;20028;-70
2022/11/05 08:01:01;;;;;;;15.70;8.23;;;;;;;5.67;100.00;101640.97;5068654;28;20463;-70
2022/11/05 08:03:26;;;;;;;15.98;8.75;;;;;;;5.76;100.00;101635.78;5052011;28;20051;-71
2022/11/05 08:05:51;;;;;;;17.75;7.45;;;;;;;5.85;100.00;101640.22;5066518;28;20026;-68
2022/11/05 08:08:18;;;;;;;15.15;8.55;;;;;;;5.92;100.00;101649.22;5095781;28;20110;-69
2022/11/05 08:10:44;;;;;;;13.85;7.70;;;;;;;5.99;100.00;101642.41;5099787;28;20024;-71
2022/11/05 08:13:10;;;;;;;19.13;8.75;;;;;;;6.02;100.00;101639.47;5100423;28;20047;-72
2022/11/05 08:15:35;;;;;;;15.05;7.95;;;;;;;6.15;100.00;101641.75;5100384;28;20035;-73
2022/11/05 08:18:06;;;;;;;17.30;7.63;;;;;;;6.24;100.00;101642.72;5100777;28;20047;-72
2022/11/05 08:20:32;;;;;;;16.30;8.32;;;;;;;6.29;100.00;101633.31;5072206;28;20386;-73
2022/11/05 08:22:58;;;;;;;16.58;8.40;;;;;;;6.39;100.00;101643.84;5100565;28;20160;-72
2022/11/05 08:25:23;;;;;;;17.75;8.95;;;;;;;6.48;100.00;101642.97;5100669;28;20028;-72
2022/11/05 08:28:00;;;;;;;17.15;8.18;;;;;;;6.56;100.00;101637.72;5099980;28;20043;-71
2022/11/05 08:30:27;;;;;;;16.58;7.97;;;;;;;6.66;100.00;101636.84;5099952;28;20431;-69
2022/11/05 08:32:57;;;;;;;16.75;8.93;;;;;;;6.74;100.00;101632.44;5099500;28;20032;-71
2022/11/05 08:35:23;;;;;;;16.77;8.32;;;;;;;6.85;100.00;101647.28;5100235;28;20382;-70
2022/11/05 08:37:48;;;;;;;19.30;8.23;;;;;;;6.96;100.00;101649.69;5098488;28;20028;-69
2022/11/05 08:40:14;;;;;;;18.13;8.80;;;;;;;6.96;100.00;101633.78;5099072;28;20105;-69
2022/11/05 08:42:39;;;;;;;15.27;7.90;;;;;;;7.11;100.00;101643.84;5099650;28;20152;-69
2022/11/05 08:45:05;;;;;;;19.02;9.07;;;;;;;7.20;100.00;101643.75;5099926;28;20078;-70
2022/11/05 08:47:30;;;;;;;15.75;8.23;;;;;;;7.29;100.00;101639.34;5099801;28;20039;-69
2022/11/05 08:49:56;;;;;;;17.45;7.90;;;;;;;7.39;100.00;101644.53;5101251;28;20030;-69
2022/11/05 08:52:21;;;;;;;21.50;9.13;;;;;;;7.47;100.00;101642.75;5111958;28;20494;-70
2022/11/05 08:54:46;;;;;;;16.80;8.25;;;;;;;7.55;100.00;101641.16;5112222;28;20402;-70
2022/11/05 08:57:11;;;;;;;17.77;7.97;;;;;;;7.57;100.00;101637.34;5111992;28;20032;-70
2022/11/05 08:59:37;;;;;;;15.50;8.55;;;;;;;7.73;100.00;101643.72;5093210;28;20119;-70
2022/11/05 09:02:02;;;;;;;17.75;8.20;;;;;;;7.75;100.00;101647.06;5111106;28;20027;-70
2022/11/05 09:04:27;;;;;;;17.08;7.65;;;;;;;7.79;100.00;101646.59;5111675;28;20038;-70
2022/11/05 09:06:53;;;;;;;17.77;8.70;;;;;;;7.88;100.00;101652.75;5091921;28;20161;-67
2022/11/05 09:09:18;;;;;;;17.75;9.20;;;;;;;7.95;100.00;101647.66;5092314;28;20119;-67
2022/11/05 09:11:43;;;;;;;15.60;8.57;;;;;;;8.02;100.00;101656.66;5092302;28;20032;-67
2022/11/05 09:14:09;;;;;;;20.65;11.07;;;;;;;8.09;100.00;101650.50;5092322;28;20049;-67
2022/11/05 09:16:35;;;;;;;18.00;8.25;;;;;;;8.18;100.00;101655.88;5092088;28;20471;-67
2022/11/05 09:19:03;;;;;;;17.98;9.25;;;;;;;8.24;100.00;101648.09;5091594;28;20032;-67
2022/11/05 09:21:29;;;;;;;16.55;8.70;;;;;;;8.32;100.00;101655.25;5092006;28;20122;-67
2022/11/05 09:23:54;;;;;;;19.20;7.97;;;;;;;8.37;100.00;101644.97;5091888;28;20059;-67
2022/11/05 09:26:20;;;;;;;13.50;7.18;;;;;;;8.44;100.00;101643.38;5091932;28;20058;-67
2022/11/05 09:28:45;;;;;;;15.60;7.43;;;;;;;8.51;100.00;101649.69;5091975;28;20474;-67
2022/11/05 09:31:11;;;;;;;14.50;8.50;;;;;;;8.58;100.00;101647.19;5073834;28;20047;-67
2022/11/05 09:33:38;;;;;;;18.38;8.10;;;;;;;8.65;100.00;101658.03;5091997;28;20490;-67
2022/11/05 09:36:04;;;;;;;18.48;7.93;;;;;;;8.73;100.00;101653.53;5091986;28;20486;-67
2022/11/05 09:38:31;;;;;;;15.93;7.40;;;;;;;8.77;100.00;101660.19;5091689;28;20028;-67
2022/11/05 09:41:01;;;;;;;11.95;6.75;;;;;;;8.80;100.00;101659.00;5111340;28;20023;-67
2022/11/05 09:43:52;;;;;;;13.65;6.47;;;;;;;8.85;100.00;101658.53;5111058;28;20184;-67
2022/11/05 09:46:23;;;;;;;14.73;7.93;;;;;;;8.83;100.00;101661.38;5097350;28;20035;-67
2022/11/05 09:48:52;;;;;;;17.23;6.70;;;;;;;8.83;100.00;101655.19;5111197;28;20114;-67
2022/11/05 09:51:18;;;;;;;15.00;8.43;;;;;;;8.90;100.00;101665.00;5110837;28;20390;-67
2022/11/05 09:53:45;;;;;;;14.23;6.65;;;;;;;9.00;100.00;101680.81;5110935;28;20056;-67
2022/11/05 09:56:21;;;;;;;16.42;7.28;;;;;;;9.11;100.00;101683.13;5110924;28;20034;-67
2022/11/05 09:58:55;;;;;;;14.00;7.68;;;;;;;9.24;100.00;101685.31;5110756;28;20023;-67
2022/11/05 10:01:29;;;;;;;14.35;6.80;;;;;;;9.35;100.00;101673.47;5110710;28;20063;-67
2022/11/05 10:03:58;;;;;;;12.70;6.30;;;;;;;9.42;97.96;101685.94;5110544;28;20020;-67
2022/11/05 10:06:26;;;;;;;12.60;6.35;;;;;;;9.43;97.49;101684.13;5110660;28;20028;-67
2022/11/05 10:09:02;;;;;;;14.18;7.47;;;;;;;9.54;97.78;101688.28;5110688;28;20035;-67
2022/11/05 10:11:37;;;;;;;14.68;6.97;;;;;;;9.64;99.06;101688.91;5110512;28;20041;-67
2022/11/05 10:14:27;;;;;;;13.77;6.18;;;;;;;9.78;98.99;101696.22;5110541;28;20032;-67
2022/11/05 10:17:16;;;;;;;14.38;6.47;;;;;;;9.85;96.99;101691.03;5097922;28;20043;-67
2022/11/05 10:20:07;;;;;;;16.02;6.88;;;;;;;9.91;96.73;101701.00;5110388;28;20065;-67
2022/11/05 10:22:32;;;;;;;12.43;5.63;;;;;;;9.75;96.59;101693.06;5110104;28;20042;-67
2022/11/05 10:24:59;;;;;;;13.45;5.85;;;;;;;9.71;97.10;101697.88;5104131;28;20403;-67
2022/11/05 10:27:30;;;;;;;14.00;6.63;;;;;;;9.70;97.40;101696.25;5090721;28;20028;-67
2022/11/05 10:29:56;;;;;;;12.25;6.30;;;;;;;9.74;98.58;101699.38;5110354;28;20073;-67
2022/11/05 10:32:29;;;;;;;13.65;5.38;;;;;;;9.74;97.29;101700.22;5109478;28;20036;-67
2022/11/05 10:34:57;;;;;;;11.98;6.53;;;;;;;9.76;96.94;101698.22;5110218;28;20076;-67
2022/11/05 10:37:24;;;;;;;15.95;6.07;;;;;;;9.81;96.58;101711.84;5110187;28;20088;-67
2022/11/05 10:39:49;;;;;;;13.05;7.28;;;;;;;9.88;96.62;101712.84;5109995;28;20446;-67
2022/11/05 10:42:42;;;;;;;14.27;5.88;;;;;;;9.96;95.50;101711.16;5109901;28;20086;-67
2022/11/05 10:45:39;;;;;;;17.55;6.80;;;;;;;10.02;95.60;101705.97;5110051;28;20031;-67
2022/11/05 10:48:19;;;;;;;21.65;6.55;;;;;;;10.09;94.38;101704.28;5109794;28;20497;-67
2022/11/05 10:50:46;;;;;;;15.57;6.82;;;;;;;10.15;95.72;101704.59;5091647;28;20076;-67
2022/11/05 10:53:15;;;;;;;11.85;5.45;;;;;;;10.23;94.66;101702.72;5089642;28;20059;-67
2022/11/05 10:55:45;;;;;;;14.38;6.72;;;;;;;10.21;93.06;101709.22;5090223;28;20106;-67
2022/11/05 10:58:16;;;;;;;10.23;4.63;;;;;;;10.28;93.80;101712.91;5090695;28;20031;-67
2022/11/05 11:00:59;;;;;;;19.50;7.32;;;;;;;10.30;93.23;101710.91;5090047;28;20533;-67
2022/11/05 11:03:33;;;;;;;13.52;6.40;;;;;;;10.24;93.19;101693.72;5095461;28;20020;-67
2022/11/05 11:06:01;;;;;;;19.20;5.97;;;;;;;10.21;92.20;101693.22;5096191;28;20027;-67
2022/11/05 11:08:27;;;;;;;13.30;5.93;;;;;;;10.26;91.23;101696.22;5097571;28;20474;-66
2022/11/05 11:11:02;;;;;;;9.23;5.80;;;;;;;10.30;91.94;101698.41;5096169;28;20509;-67
2022/11/05 11:13:50;;;;;;;12.63;6.35;;;;;;;10.35;94.03;101705.88;5100956;28;20038;-66
2022/11/05 11:16:20;;;;;;;15.25;6.45;;;;;;;10.31;92.24;101693.88;5109383;28;20028;-70
2022/11/05 11:18:51;;;;;;;12.80;6.38;;;;;;;10.34;92.31;101700.72;5098250;28;20042;-70
2022/11/05 11:21:25;;;;;;;10.90;5.30;;;;;;;10.34;90.83;101698.88;5071597;28;20024;-69
2022/11/05 11:24:05;;;;;;;11.27;6.00;;;;;;;10.37;91.99;101706.50;5089740;28;20459;-70
2022/11/05 11:26:35;;;;;;;10.68;5.88;;;;;;;10.38;92.39;101702.03;5089751;28;20039;-69
2022/11/05 11:29:03;;;;;;;12.30;6.40;;;;;;;10.41;92.52;101697.16;5089826;28;20070;-70
2022/11/05 11:31:31;;;;;;;11.23;5.60;;;;;;;10.41;90.72;101689.16;5089922;28;20028;-70
2022/11/05 11:34:05;;;;;;;14.23;7.55;;;;;;;10.47;91.99;101695.63;5089901;28;20044;-66
2022/11/05 11:36:35;;;;;;;11.65;5.93;;;;;;;10.47;92.61;101696.47;5089939;28;20110;-66
2022/11/05 11:39:03;;;;;;;15.45;6.05;;;;;;;10.52;91.87;101698.59;5089790;28;20699;-66
2022/11/05 11:41:36;;;;;;;10.13;6.30;;;;;;;10.55;92.11;101687.59;5089500;28;20032;-66
2022/11/05 11:44:09;;;;;;;9.60;5.53;;;;;;;10.59;91.40;101685.41;5092866;28;20425;-66
2022/11/05 11:46:35;;;;;;;13.65;5.80;;;;;;;10.64;91.69;101685.72;5093805;28;20432;-66
2022/11/05 11:49:01;;;;;;;14.18;6.97;;;;;;;10.72;92.53;101681.16;5093971;28;20059;-66
2022/11/05 11:51:29;;;;;;;13.82;6.03;;;;;;;10.78;92.70;101689.44;5093763;28;20387;-66
2022/11/05 11:53:57;;;;;;;13.18;6.70;;;;;;;10.78;90.69;101692.94;5093606;28;20028;-66
2022/11/05 11:56:22;;;;;;;13.43;6.30;;;;;;;10.81;92.35;101686.44;5093723;28;20043;-66
2022/11/05 11:58:52;;;;;;;14.85;6.95;;;;;;;10.84;90.70;101694.06;5093667;28;20078;-65
2022/11/05 12:01:33;;;;;;;11.77;5.57;;;;;;;10.90;90.10;101696.06;5093784;28;20035;-66
2022/11/05 12:04:25;;;;;;;12.07;6.17;;;;;;;10.87;89.99;101685.72;5107917;28;20420;-66
2022/11/05 12:07:07;;;;;;;12.32;5.45;;;;;;;10.93;90.17;101687.69;5112962;28;20817;-66